createdAt,value
2023-05-14T00:01:28.324Z,153044.81
2023-05-14T00:03:58.697Z,153055.22
2023-05-14T00:06:32.071Z,153033.16
2023-05-14T00:09:02.239Z,153037.06
2023-05-14T00:11:32.374Z,153038.34
2023-05-14T00:14:02.582Z,153022.81
2023-05-14T00:16:32.799Z,153026.72
2023-05-14T00:19:03.009Z,153013.75
2023-05-14T00:21:35.813Z,153021.53
2023-05-14T00:24:06.008Z,153013.75
2023-05-14T00:26:36.134Z,153017.63
2023-05-14T00:29:06.478Z,153013.75
2023-05-14T00:31:36.624Z,153025.44
2023-05-14T00:34:07.167Z,153016.34
2023-05-14T00:36:39.927Z,153015.03
2023-05-14T00:39:10.053Z,153007.28
2023-05-14T00:41:40.229Z,153008.56
2023-05-14T00:44:10.377Z,153020.19
2023-05-14T00:46:40.872Z,153007.28
2023-05-14T00:49:11.416Z,153007.28
2023-05-14T00:51:47.057Z,153016.34
2023-05-14T00:54:18.353Z,152995.66
2023-05-14T00:56:51.977Z,153000.81
2023-05-14T00:59:22.178Z,153016.34
2023-05-14T01:01:55.570Z,153020.19
2023-05-14T01:04:28.964Z,153016.34
2023-05-14T01:07:12.393Z,153018.91
2023-05-14T01:09:54.952Z,153011.19
2023-05-14T01:12:46.878Z,153008.56
2023-05-14T01:15:24.128Z,153015.03
2023-05-14T01:17:58.310Z,153006.00
2023-05-14T01:20:29.553Z,153016.34
2023-05-14T01:23:04.610Z,153015.03
2023-05-14T01:25:37.174Z,153009.84
2023-05-14T01:28:15.572Z,153016.34
2023-05-14T01:30:53.656Z,153022.81
2023-05-14T01:33:28.002Z,153020.19
2023-05-14T01:36:00.713Z,153017.63
2023-05-14T01:38:39.953Z,153022.81
2023-05-14T01:41:10.505Z,153020.19
2023-05-14T01:43:41.485Z,153018.91
2023-05-14T01:46:11.668Z,153016.34
2023-05-14T01:48:41.849Z,153018.91
2023-05-14T01:51:15.013Z,153015.03
2023-05-14T01:53:48.941Z,153009.84
2023-05-14T01:56:19.091Z,153013.75
2023-05-14T01:58:49.284Z,152991.75
2023-05-14T02:01:20.082Z,153004.66
2023-05-14T02:03:51.583Z,152996.94
2023-05-14T02:06:21.800Z,152994.31
2023-05-14T02:08:54.550Z,152991.75
2023-05-14T02:11:24.852Z,152971.06
2023-05-14T02:13:55.039Z,152972.34
2023-05-14T02:16:25.279Z,152994.31
2023-05-14T02:18:56.684Z,152983.97
2023-05-14T02:21:27.448Z,152987.88
2023-05-14T02:24:00.545Z,152994.31
2023-05-14T02:26:30.770Z,152973.63
2023-05-14T02:29:01.108Z,152947.75
2023-05-14T02:31:31.263Z,152960.66
2023-05-14T02:34:01.546Z,152963.25
2023-05-14T02:36:32.110Z,152965.81
2023-05-14T02:39:04.967Z,152956.81
2023-05-14T02:41:35.106Z,152965.81
2023-05-14T02:44:05.322Z,152960.66
2023-05-14T02:46:35.573Z,152939.91
2023-05-14T02:49:05.909Z,152951.63
2023-05-14T02:51:36.081Z,152956.81
2023-05-14T02:54:09.094Z,152961.97
2023-05-14T02:56:39.259Z,152951.63
2023-05-14T02:59:09.355Z,152945.13
2023-05-14T03:01:40.285Z,152949.03
2023-05-14T03:04:10.969Z,152955.47
2023-05-14T03:06:41.112Z,152960.66
2023-05-14T03:09:14.541Z,152958.09
2023-05-14T03:11:44.692Z,152952.91
2023-05-14T03:14:14.897Z,152947.75
2023-05-14T03:16:45.152Z,152949.03
2023-05-14T03:19:15.450Z,152928.28
2023-05-14T03:21:46.825Z,152937.34
2023-05-14T03:24:19.606Z,152932.16
2023-05-14T03:26:49.812Z,152942.50
2023-05-14T03:29:20.410Z,152941.22
2023-05-14T03:31:50.891Z,152921.81
2023-05-14T03:34:21.334Z,152928.28
2023-05-14T03:36:51.452Z,152936.00
2023-05-14T03:39:24.319Z,152915.31
2023-05-14T03:41:54.533Z,152923.09
2023-05-14T03:44:24.711Z,152933.44
2023-05-14T03:46:54.878Z,152928.28
2023-05-14T03:49:25.126Z,152927.00
2023-05-14T03:51:55.361Z,152923.09
2023-05-14T03:54:28.135Z,152912.75
2023-05-14T03:56:58.933Z,152928.28
2023-05-14T03:59:29.271Z,152920.47
2023-05-14T04:01:59.443Z,152927.00
2023-05-14T04:04:29.776Z,152916.63
2023-05-14T04:06:59.963Z,152908.84
2023-05-14T04:09:34.724Z,152901.06
2023-05-14T04:12:04.922Z,152910.13
2023-05-14T04:14:36.856Z,152911.41
2023-05-14T04:17:07.414Z,152927.00
2023-05-14T04:19:37.599Z,152916.63
2023-05-14T04:22:08.079Z,152915.31
2023-05-14T04:24:41.119Z,152911.41
2023-05-14T04:27:11.343Z,152916.63
2023-05-14T04:29:41.479Z,152916.63
2023-05-14T04:32:12.430Z,152915.31
2023-05-14T04:34:42.666Z,152921.81
2023-05-14T04:37:12.805Z,152925.66
2023-05-14T04:39:45.556Z,152910.13
2023-05-14T04:42:15.684Z,152904.97
2023-05-14T04:44:45.848Z,152902.41
2023-05-14T04:47:15.940Z,152898.50
2023-05-14T04:49:46.326Z,152911.41
2023-05-14T04:52:16.510Z,152895.88
2023-05-14T04:54:49.386Z,152889.44
2023-05-14T04:57:19.755Z,152898.50
2023-05-14T04:59:49.915Z,152888.16
2023-05-14T05:02:20.079Z,152898.50
2023-05-14T05:04:50.271Z,152906.25
2023-05-14T05:07:20.417Z,152894.59
2023-05-14T05:09:53.153Z,152894.59
2023-05-14T05:12:23.318Z,152899.78
2023-05-14T05:14:53.404Z,152902.41
2023-05-14T05:17:23.560Z,152892.03
2023-05-14T05:19:53.898Z,152911.41
2023-05-14T05:22:24.069Z,152915.31
2023-05-14T05:24:56.787Z,152886.88
2023-05-14T05:27:27.248Z,152903.69
2023-05-14T05:29:57.764Z,152903.69
2023-05-14T05:32:28.282Z,152911.41
2023-05-14T05:34:58.464Z,152895.88
2023-05-14T05:37:28.607Z,152895.88
2023-05-14T05:40:01.283Z,152901.06
2023-05-14T05:42:31.502Z,152876.47
2023-05-14T05:45:01.567Z,152881.66
2023-05-14T05:47:31.692Z,152881.66
2023-05-14T05:50:01.937Z,152885.53
2023-05-14T05:52:32.138Z,152890.72
2023-05-14T05:55:04.882Z,152907.56
2023-05-14T05:57:35.045Z,152890.72
2023-05-14T06:00:12.816Z,152894.59
2023-05-14T06:02:43.657Z,152873.91
2023-05-14T06:05:14.239Z,152875.19
2023-05-14T06:07:44.476Z,152877.81
2023-05-14T06:10:17.264Z,152862.28
2023-05-14T06:12:47.453Z,152880.38
2023-05-14T06:15:18.120Z,152872.63
2023-05-14T06:17:48.334Z,152860.94
2023-05-14T06:20:18.751Z,152867.44
2023-05-14T06:22:48.890Z,152867.44
2023-05-14T06:25:21.740Z,152904.97
2023-05-14T06:27:51.868Z,152892.03
2023-05-14T06:30:22.326Z,152872.63
2023-05-14T06:32:52.847Z,152882.97
2023-05-14T06:35:23.218Z,152899.78
2023-05-14T06:37:53.410Z,152881.66
2023-05-14T06:40:26.406Z,152892.03
2023-05-14T06:42:56.699Z,152890.72
2023-05-14T06:45:27.823Z,152915.31
2023-05-14T06:47:58.960Z,152901.06
2023-05-14T06:50:32.081Z,152893.31
2023-05-14T06:53:02.211Z,152904.97
2023-05-14T06:55:35.047Z,152919.19
2023-05-14T06:58:05.413Z,152920.47
2023-05-14T07:00:35.918Z,152927.00
2023-05-14T07:03:06.186Z,152933.44
2023-05-14T07:05:36.371Z,152939.91
2023-05-14T07:08:06.709Z,152927.00
2023-05-14T07:10:39.930Z,152929.56
2023-05-14T07:13:12.743Z,152963.25
2023-05-14T07:15:43.078Z,152969.72
2023-05-14T07:18:13.387Z,152958.09
2023-05-14T07:20:43.563Z,152960.66
2023-05-14T07:23:13.717Z,152982.69
2023-05-14T07:25:46.407Z,152998.22
2023-05-14T07:28:16.853Z,153002.09
2023-05-14T07:30:47.217Z,153015.03
2023-05-14T07:33:17.365Z,153025.44
2023-05-14T07:35:47.646Z,153056.50
2023-05-14T07:38:18.067Z,153077.19
2023-05-14T07:40:50.837Z,153103.09
2023-05-14T07:43:21.016Z,153103.09
2023-05-14T07:45:51.692Z,153096.63
2023-05-14T07:48:21.952Z,153123.81
2023-05-14T07:50:55.261Z,153144.56
2023-05-14T07:53:26.474Z,153152.31
2023-05-14T07:56:00.251Z,153141.94
2023-05-14T07:58:32.932Z,153153.59
2023-05-14T08:01:07.395Z,153165.28
2023-05-14T08:03:37.893Z,153204.16
2023-05-14T08:06:08.648Z,153211.88
2023-05-14T08:08:38.820Z,153214.50
2023-05-14T08:11:12.041Z,153213.19
2023-05-14T08:13:42.249Z,153236.50
2023-05-14T08:16:12.381Z,153237.78
2023-05-14T08:18:42.614Z,153241.69
2023-05-14T08:21:12.825Z,153246.88
2023-05-14T08:23:42.955Z,153263.75
2023-05-14T08:26:15.696Z,153222.25
2023-05-14T08:28:45.867Z,153198.97
2023-05-14T08:31:18.599Z,153210.59
2023-05-14T08:33:48.804Z,153206.72
2023-05-14T08:36:18.949Z,153186.00
2023-05-14T08:38:50.625Z,153184.72
2023-05-14T08:41:24.365Z,153208.00
2023-05-14T08:44:09.480Z,153206.72
2023-05-14T08:46:41.212Z,153217.06
2023-05-14T08:49:23.349Z,153191.16
2023-05-14T08:51:53.687Z,153182.09
2023-05-14T08:54:25.588Z,153204.16
2023-05-14T08:56:59.461Z,153195.06
2023-05-14T08:59:29.867Z,153200.25
2023-05-14T09:02:01.905Z,153222.25
2023-05-14T09:04:32.921Z,153217.06
2023-05-14T09:07:07.669Z,153193.78
2023-05-14T09:09:38.319Z,153184.72
2023-05-14T09:12:12.259Z,153196.34
2023-05-14T09:14:43.179Z,153206.72
2023-05-14T09:17:13.736Z,153188.56
2023-05-14T09:19:44.017Z,153213.19
2023-05-14T09:22:16.636Z,153209.31
2023-05-14T09:24:47.155Z,153230.03
2023-05-14T09:27:26.197Z,153209.31
2023-05-14T09:29:56.536Z,153196.34
2023-05-14T09:32:26.769Z,153211.88
2023-05-14T09:34:59.497Z,153176.91
2023-05-14T09:37:32.806Z,153165.28
2023-05-14T09:40:09.728Z,153148.41
2023-05-14T09:42:42.927Z,153156.19
2023-05-14T09:45:17.098Z,153162.66
2023-05-14T09:47:47.849Z,153144.56
2023-05-14T09:50:18.113Z,153161.38
2023-05-14T09:52:48.534Z,153141.94
2023-05-14T09:55:19.258Z,153160.09
2023-05-14T09:57:52.075Z,153166.56
2023-05-14T10:00:23.356Z,153184.72
2023-05-14T10:02:54.377Z,153188.56
2023-05-14T10:05:27.303Z,153205.44
2023-05-14T10:08:02.340Z,153219.69
2023-05-14T10:10:33.094Z,153245.59
2023-05-14T10:13:08.046Z,153246.88
2023-05-14T10:15:43.792Z,153244.31
2023-05-14T10:18:16.134Z,153253.38
2023-05-14T10:20:47.248Z,153257.22
2023-05-14T10:23:17.614Z,153278.00
2023-05-14T10:25:48.466Z,153285.75
2023-05-14T10:28:21.612Z,153267.59
2023-05-14T10:30:53.045Z,153281.84
2023-05-14T10:33:23.184Z,153257.22
2023-05-14T10:36:00.654Z,153265.03
2023-05-14T10:38:32.039Z,153285.75
2023-05-14T10:41:06.779Z,153272.81
2023-05-14T10:43:42.556Z,153258.56
2023-05-14T10:46:14.323Z,153250.75
2023-05-14T10:48:47.302Z,153250.75
2023-05-14T10:51:21.143Z,153261.13
2023-05-14T10:53:51.855Z,153258.56
2023-05-14T10:56:22.530Z,153281.84
2023-05-14T10:58:55.216Z,153283.19
2023-05-14T11:01:27.433Z,153287.03
2023-05-14T11:04:01.395Z,153309.06
2023-05-14T11:06:32.636Z,153292.22
2023-05-14T11:09:04.510Z,153303.91
2023-05-14T11:11:35.534Z,153310.38
2023-05-14T11:14:10.179Z,153322.00
2023-05-14T11:16:41.694Z,153306.47
2023-05-14T11:19:13.778Z,153322.00
2023-05-14T11:21:44.524Z,153307.78
2023-05-14T11:24:14.766Z,153311.66
2023-05-14T11:26:45.014Z,153296.09
2023-05-14T11:29:17.911Z,153287.03
2023-05-14T11:31:48.121Z,153303.91
2023-05-14T11:34:18.341Z,153315.53
2023-05-14T11:36:49.228Z,153312.97
2023-05-14T11:39:21.896Z,153310.38
2023-05-14T11:41:52.077Z,153327.25
2023-05-14T11:44:25.653Z,153324.63
2023-05-14T11:46:58.961Z,153311.66
2023-05-14T11:49:30.436Z,153315.53
2023-05-14T11:52:00.890Z,153323.34
2023-05-14T11:54:31.450Z,153316.81
2023-05-14T11:57:03.170Z,153311.66
2023-05-14T11:59:36.065Z,153316.81
2023-05-14T12:02:07.094Z,153329.81
2023-05-14T12:04:37.561Z,153336.28
2023-05-14T12:07:12.368Z,153336.28
2023-05-14T12:09:49.331Z,153325.91
2023-05-14T12:12:22.138Z,153322.00
2023-05-14T12:14:55.263Z,153324.63
2023-05-14T12:17:26.044Z,153312.97
2023-05-14T12:19:57.301Z,153290.94
2023-05-14T12:22:27.627Z,153272.81
2023-05-14T12:24:58.566Z,153281.84
2023-05-14T12:27:29.874Z,153280.56
2023-05-14T12:30:20.679Z,153245.59
2023-05-14T12:32:53.232Z,153244.31
2023-05-14T12:35:24.433Z,153245.59
2023-05-14T12:37:54.722Z,153245.59
2023-05-14T12:40:25.509Z,153253.38
2023-05-14T12:42:56.810Z,153241.69
2023-05-14T12:45:30.110Z,153242.97
2023-05-14T12:48:00.347Z,153232.63
2023-05-14T12:50:30.529Z,153246.88
2023-05-14T12:53:00.800Z,153237.78
2023-05-14T12:55:33.489Z,153236.50
2023-05-14T12:58:03.822Z,153219.69
2023-05-14T13:00:36.977Z,153236.50
2023-05-14T13:03:07.411Z,153223.59
2023-05-14T13:05:37.631Z,153208.00
2023-05-14T13:08:07.854Z,153220.97
2023-05-14T13:10:38.042Z,153193.78
2023-05-14T13:13:08.170Z,153198.97
2023-05-14T13:15:41.920Z,153162.66
2023-05-14T13:18:11.892Z,153147.13
2023-05-14T13:20:44.805Z,153157.47
2023-05-14T13:23:15.042Z,153154.91
2023-05-14T13:25:46.128Z,153169.16
2023-05-14T13:28:17.484Z,153164.00
2023-05-14T13:31:12.396Z,153167.84
2023-05-14T13:33:45.007Z,153175.63
2023-05-14T13:36:17.409Z,153158.78
2023-05-14T13:38:48.868Z,153186.00
2023-05-14T13:41:19.001Z,153173.03
2023-05-14T13:43:49.155Z,153158.78
2023-05-14T13:46:21.931Z,153136.78
2023-05-14T13:48:52.785Z,153152.31
2023-05-14T13:51:22.952Z,153157.47
2023-05-14T13:56:23.506Z,153144.56
2023-05-14T13:58:53.644Z,153151.03
2023-05-14T14:01:26.459Z,153156.19
2023-05-14T14:03:56.802Z,153153.59
2023-05-14T14:06:27.478Z,153165.28
2023-05-14T14:08:57.665Z,153162.66
2023-05-14T14:11:27.884Z,153149.75
2023-05-14T14:13:57.991Z,153160.09
2023-05-14T14:16:30.808Z,153162.66
2023-05-14T14:19:01.007Z,153162.66
2023-05-14T14:21:32.935Z,153158.78
2023-05-14T14:24:03.145Z,153157.47
2023-05-14T14:26:33.503Z,153154.91
2023-05-14T14:29:03.659Z,153149.75
2023-05-14T14:31:37.731Z,153147.13
2023-05-14T14:34:07.941Z,153158.78
2023-05-14T14:36:38.123Z,153157.47
2023-05-14T14:39:10.787Z,153169.16
2023-05-14T14:41:44.640Z,153164.00
2023-05-14T14:44:14.747Z,153169.16
2023-05-14T14:46:47.428Z,153169.16
2023-05-14T14:49:18.948Z,153180.81
2023-05-14T14:51:49.316Z,153170.47
2023-05-14T14:54:19.438Z,153173.03
2023-05-14T14:56:52.564Z,153167.84
2023-05-14T14:59:22.946Z,153178.19
2023-05-14T15:01:55.799Z,153184.72
2023-05-14T15:04:25.930Z,153180.81
2023-05-14T15:06:56.009Z,153167.84
2023-05-14T15:09:26.182Z,153182.09
2023-05-14T15:11:56.651Z,153164.00
2023-05-14T15:14:26.832Z,153180.81
2023-05-14T15:17:00.062Z,153173.03
2023-05-14T15:19:30.322Z,153180.81
2023-05-14T15:22:00.535Z,153171.75
2023-05-14T15:24:30.596Z,153178.19
2023-05-14T15:27:00.739Z,153174.34
2023-05-14T15:29:30.906Z,153178.19
2023-05-14T15:32:07.132Z,153176.91
2023-05-14T15:34:37.346Z,153189.88
2023-05-14T15:37:07.583Z,153195.06
2023-05-14T15:39:37.733Z,153192.47
2023-05-14T15:42:08.266Z,153200.25
2023-05-14T15:44:39.112Z,153208.00
2023-05-14T15:47:12.096Z,153200.25
2023-05-14T15:49:42.347Z,153205.44
2023-05-14T15:52:12.540Z,153208.00
2023-05-14T15:54:45.708Z,153201.53
2023-05-14T15:57:17.832Z,153204.16
2023-05-14T15:59:50.036Z,153195.06
2023-05-14T16:02:22.848Z,153214.50
2023-05-14T16:04:52.940Z,153217.06
2023-05-14T16:07:23.153Z,153217.06
2023-05-14T16:09:53.372Z,153213.19
2023-05-14T16:12:23.559Z,153222.25
2023-05-14T16:14:54.197Z,153219.69
2023-05-14T16:17:27.064Z,153215.78
2023-05-14T16:19:57.964Z,153215.78
2023-05-14T16:22:29.302Z,153218.41
2023-05-14T16:25:01.812Z,153223.59
2023-05-14T16:27:33.440Z,153217.06
2023-05-14T16:30:04.622Z,153224.88
2023-05-14T16:32:37.397Z,153227.44
2023-05-14T16:35:08.214Z,153222.25
2023-05-14T16:37:38.517Z,153227.44
2023-05-14T16:40:11.890Z,153222.25
2023-05-14T16:42:42.273Z,153217.06
2023-05-14T16:45:14.104Z,153222.25
2023-05-14T16:47:46.977Z,153224.88
2023-05-14T16:50:17.192Z,153224.88
2023-05-14T16:52:50.328Z,153228.75
2023-05-14T16:55:20.538Z,153223.59
2023-05-14T16:57:50.897Z,153219.69
2023-05-14T17:00:21.296Z,153217.06
2023-05-14T17:02:54.501Z,153222.25
2023-05-14T17:05:25.031Z,153220.97
2023-05-14T17:07:55.626Z,153219.69
2023-05-14T17:10:26.140Z,153227.44
2023-05-14T17:12:56.516Z,153218.41
2023-05-14T17:15:28.403Z,153214.50
2023-05-14T17:18:01.784Z,153222.25
2023-05-14T17:20:32.052Z,153222.25
2023-05-14T17:23:02.215Z,153223.59
2023-05-14T17:25:33.774Z,153226.16
2023-05-14T17:28:03.931Z,153230.03
2023-05-14T17:30:34.466Z,153223.59
2023-05-14T17:33:07.426Z,153239.13
2023-05-14T17:35:37.829Z,153230.03
2023-05-14T17:38:10.194Z,153224.88
2023-05-14T17:40:41.087Z,153231.31
2023-05-14T17:43:11.480Z,153230.03
2023-05-14T17:45:53.158Z,153226.16
2023-05-14T17:48:27.061Z,153227.44
2023-05-14T17:50:57.834Z,153228.75
2023-05-14T17:53:28.491Z,153236.50
2023-05-14T17:55:58.724Z,153236.50
2023-05-14T17:58:28.936Z,153233.94
2023-05-14T18:00:59.486Z,153232.63
2023-05-14T18:03:32.406Z,153232.63
2023-05-14T18:06:02.806Z,153231.31
2023-05-14T18:08:32.992Z,153241.69
2023-05-14T18:11:03.129Z,153237.78
2023-05-14T18:13:33.313Z,153246.88
2023-05-14T18:16:04.092Z,153240.41
2023-05-14T18:18:37.043Z,153236.50
2023-05-14T18:21:07.512Z,153246.88
2023-05-14T18:23:37.765Z,153244.31
2023-05-14T18:26:07.963Z,153250.75
2023-05-14T18:28:39.514Z,153245.59
2023-05-14T18:31:09.994Z,153242.97
2023-05-14T18:33:42.771Z,153245.59
2023-05-14T18:36:12.912Z,153242.97
2023-05-14T18:38:43.771Z,153245.59
2023-05-14T18:41:18.451Z,153250.75
2023-05-14T18:43:48.537Z,153261.13
2023-05-14T18:46:18.896Z,153265.03
2023-05-14T18:48:51.704Z,153259.84
2023-05-14T18:51:21.978Z,153263.75
2023-05-14T18:53:52.203Z,153267.59
2023-05-14T18:56:22.476Z,153272.81
2023-05-14T18:58:52.660Z,153285.75
2023-05-14T19:01:25.723Z,153278.00
2023-05-14T19:03:58.796Z,153285.75
2023-05-14T19:06:29.007Z,153284.47
2023-05-14T19:08:59.329Z,153288.34
2023-05-14T19:11:29.817Z,153285.75
2023-05-14T19:14:00.162Z,153285.75
2023-05-14T19:16:30.508Z,153292.22
2023-05-14T19:19:06.225Z,153284.47
2023-05-14T19:21:36.550Z,153285.75
2023-05-14T19:24:07.529Z,153284.47
2023-05-14T19:26:37.754Z,153287.03
2023-05-14T19:29:07.929Z,153289.63
2023-05-14T19:31:38.008Z,153297.38
2023-05-14T19:34:11.072Z,153283.19
2023-05-14T19:36:41.897Z,153281.84
2023-05-14T19:39:12.043Z,153281.84
2023-05-14T19:41:42.195Z,153280.56
2023-05-14T19:44:12.443Z,153275.38
2023-05-14T19:46:44.887Z,153272.81
2023-05-14T19:49:17.686Z,153268.91
2023-05-14T19:51:47.886Z,153274.09
2023-05-14T19:54:18.062Z,153274.09
2023-05-14T19:56:48.227Z,153296.09
2023-05-14T19:59:18.328Z,153323.34
2023-05-14T20:01:49.483Z,153311.66
2023-05-14T20:04:22.203Z,153287.03
2023-05-14T20:06:52.922Z,153289.63
2023-05-14T20:09:23.132Z,153296.09
2023-05-14T20:11:53.354Z,153288.34
2023-05-14T20:14:23.505Z,153285.75
2023-05-14T20:16:53.680Z,153280.56
2023-05-14T20:19:26.664Z,153287.03
2023-05-14T20:21:56.944Z,153292.22
2023-05-14T20:24:27.117Z,153293.53
2023-05-14T20:26:57.352Z,153293.53
2023-05-14T20:29:27.501Z,153287.03
2023-05-14T20:31:57.642Z,153292.22
2023-05-14T20:34:30.385Z,153294.81
2023-05-14T20:37:00.559Z,153292.22
2023-05-14T20:39:30.686Z,153296.09
2023-05-14T20:42:00.778Z,153310.38
2023-05-14T20:44:30.918Z,153296.09
2023-05-14T20:47:01.368Z,153293.53
2023-05-14T20:49:34.057Z,153320.72
2023-05-14T20:52:04.279Z,153302.63
2023-05-14T20:54:34.921Z,153296.09
2023-05-14T20:57:05.120Z,153297.38
2023-05-14T20:59:35.329Z,153294.81
2023-05-14T21:02:06.381Z,153283.19
2023-05-14T21:04:39.264Z,153284.47
2023-05-14T21:07:09.870Z,153271.47
2023-05-14T21:09:40.490Z,153266.31
2023-05-14T21:12:11.527Z,153268.91
2023-05-14T21:14:42.265Z,153267.59
2023-05-14T21:17:12.658Z,153267.59
2023-05-14T21:19:45.424Z,153268.91
2023-05-14T21:22:16.366Z,153268.91
2023-05-14T21:24:46.457Z,153257.22
2023-05-14T21:27:16.645Z,153268.91
2023-05-14T21:29:47.165Z,153257.22
2023-05-14T21:32:17.362Z,153266.31
2023-05-14T21:34:50.157Z,153272.81
2023-05-14T21:37:20.290Z,153283.19
2023-05-14T21:39:50.414Z,153275.38
2023-05-14T21:42:21.266Z,153290.94
2023-05-14T21:44:51.599Z,153289.63
2023-05-14T21:47:22.093Z,153285.75
2023-05-14T21:49:54.848Z,153302.63
2023-05-14T21:52:24.931Z,153294.81
2023-05-14T21:54:55.061Z,153287.03
2023-05-14T21:57:28.375Z,153290.94
2023-05-14T21:59:59.035Z,153270.19
2023-05-14T22:02:29.264Z,153275.38
2023-05-14T22:05:02.041Z,153285.75
2023-05-14T22:07:32.179Z,153284.47
2023-05-14T22:10:02.483Z,153278.00
2023-05-14T22:12:32.603Z,153278.00
2023-05-14T22:15:02.809Z,153271.47
2023-05-14T22:17:34.528Z,153276.66
2023-05-14T22:20:10.300Z,153272.81
2023-05-14T22:22:40.638Z,153281.84
2023-05-14T22:25:11.485Z,153290.94
2023-05-14T22:27:41.533Z,153288.34
2023-05-14T22:30:12.601Z,153285.75
2023-05-14T22:32:42.739Z,153280.56
2023-05-14T22:35:15.571Z,153274.09
2023-05-14T22:37:45.796Z,153276.66
2023-05-14T22:40:16.669Z,153276.66
2023-05-14T22:42:46.924Z,153278.00
2023-05-14T22:45:17.495Z,153284.47
2023-05-14T22:47:47.708Z,153283.19
2023-05-14T22:50:20.603Z,153274.09
2023-05-14T22:52:50.794Z,153289.63
2023-05-14T22:55:21.358Z,153290.94
2023-05-14T22:57:51.557Z,153289.63
2023-05-14T23:00:21.964Z,153293.53
2023-05-14T23:02:52.096Z,153287.03
2023-05-14T23:05:25.130Z,153294.81
2023-05-14T23:07:56.251Z,153281.84
2023-05-14T23:10:26.345Z,153289.63
2023-05-14T23:12:56.469Z,153293.53
2023-05-14T23:15:26.840Z,153297.38
2023-05-14T23:17:57.364Z,153290.94
2023-05-14T23:20:30.194Z,153284.47
2023-05-14T23:23:00.329Z,153289.63
2023-05-14T23:25:30.435Z,153292.22
2023-05-14T23:28:00.623Z,153283.19
2023-05-14T23:30:31.405Z,153281.84
2023-05-14T23:33:01.709Z,153287.03
2023-05-14T23:35:34.653Z,153276.66
2023-05-14T23:38:05.008Z,153284.47
2023-05-14T23:40:35.565Z,153283.19
2023-05-14T23:43:05.685Z,153285.75
2023-05-14T23:45:36.572Z,153284.47
2023-05-14T23:48:07.833Z,153287.03
2023-05-14T23:50:40.700Z,153288.34
2023-05-14T23:53:10.919Z,153292.22
2023-05-14T23:55:41.352Z,153297.38
2023-05-14T23:58:11.709Z,153294.81
